sensor_id;sensor_type;location;lat;lon;timestamp;temperature;humidity
32660;DHT22;19064;47.912;12.308;2022-07-03T00:01:35;15.40;99.90
32660;DHT22;19064;47.912;12.308;2022-07-03T00:04:04;15.30;99.90
32660;DHT22;19064;47.912;12.308;2022-07-03T00:06:32;15.20;99.90
32660;DHT22;19064;47.912;12.308;2022-07-03T00:08:59;15.10;99.90
32660;DHT22;19064;47.912;12.308;2022-07-03T00:11:26;15.10;99.90
32660;DHT22;19064;47.912;12.308;2022-07-03T00:13:53;15.20;99.90
32660;DHT22;19064;47.912;12.308;2022-07-03T00:16:20;15.20;99.90
32660;DHT22;19064;47.912;12.308;2022-07-03T00:18:47;15.20;99.90
32660;DHT22;19064;47.912;12.308;2022-07-03T00:21:20;15.10;99.90
32660;DHT22;19064;47.912;12.308;2022-07-03T00:23:52;15.10;99.90
32660;DHT22;19064;47.912;12.308;2022-07-03T00:26:21;15.00;99.90
32660;DHT22;19064;47.912;12.308;2022-07-03T00:28:49;14.90;99.90
32660;DHT22;19064;47.912;12.308;2022-07-03T00:31:17;14.90;99.90
32660;DHT22;19064;47.912;12.308;2022-07-03T00:33:45;14.80;99.90
32660;DHT22;19064;47.912;12.308;2022-07-03T00:36:11;14.80;99.90
32660;DHT22;19064;47.912;12.308;2022-07-03T00:38:40;14.90;99.90
32660;DHT22;19064;47.912;12.308;2022-07-03T00:41:24;15.00;99.90
32660;DHT22;19064;47.912;12.308;2022-07-03T00:43:51;14.90;99.90
32660;DHT22;19064;47.912;12.308;2022-07-03T00:46:21;15.00;99.90
32660;DHT22;19064;47.912;12.308;2022-07-03T00:48:49;14.90;99.90
32660;DHT22;19064;47.912;12.308;2022-07-03T00:51:20;14.90;99.90
32660;DHT22;19064;47.912;12.308;2022-07-03T00:53:55;14.90;99.90
32660;DHT22;19064;47.912;12.308;2022-07-03T00:56:24;14.90;99.90
32660;DHT22;19064;47.912;12.308;2022-07-03T00:58:56;14.90;99.90
32660;DHT22;19064;47.912;12.308;2022-07-03T01:01:26;14.90;99.90
32660;DHT22;19064;47.912;12.308;2022-07-03T01:04:07;15.00;99.90
32660;DHT22;19064;47.912;12.308;2022-07-03T01:06:51;15.10;99.90
32660;DHT22;19064;47.912;12.308;2022-07-03T01:09:26;15.10;99.90
32660;DHT22;19064;47.912;12.308;2022-07-03T01:12:02;15.20;99.90
32660;DHT22;19064;47.912;12.308;2022-07-03T01:14:38;15.20;99.90
32660;DHT22;19064;47.912;12.308;2022-07-03T01:17:15;15.30;99.90
32660;DHT22;19064;47.912;12.308;2022-07-03T01:19:48;15.30;99.90
32660;DHT22;19064;47.912;12.308;2022-07-03T01:22:29;15.40;99.90
32660;DHT22;19064;47.912;12.308;2022-07-03T01:25:21;15.40;99.90
32660;DHT22;19064;47.912;12.308;2022-07-03T01:27:59;15.50;99.90
32660;DHT22;19064;47.912;12.308;2022-07-03T01:30:31;15.50;99.90
32660;DHT22;19064;47.912;12.308;2022-07-03T01:33:02;15.50;99.90
32660;DHT22;19064;47.912;12.308;2022-07-03T01:35:33;15.40;99.90
32660;DHT22;19064;47.912;12.308;2022-07-03T01:38:03;15.40;99.90
32660;DHT22;19064;47.912;12.308;2022-07-03T01:40:32;15.30;99.90
32660;DHT22;19064;47.912;12.308;2022-07-03T01:43:03;15.30;99.90
32660;DHT22;19064;47.912;12.308;2022-07-03T01:45:32;15.30;99.90
32660;DHT22;19064;47.912;12.308;2022-07-03T01:48:02;15.30;99.90
32660;DHT22;19064;47.912;12.308;2022-07-03T01:50:32;15.30;99.90
32660;DHT22;19064;47.912;12.308;2022-07-03T01:53:01;15.20;99.90
32660;DHT22;19064;47.912;12.308;2022-07-03T01:55:31;15.20;99.90
32660;DHT22;19064;47.912;12.308;2022-07-03T01:57:58;15.10;99.90
32660;DHT22;19064;47.912;12.308;2022-07-03T02:00:28;15.10;99.90
32660;DHT22;19064;47.912;12.308;2022-07-03T02:03:00;15.00;99.90
32660;DHT22;19064;47.912;12.308;2022-07-03T02:05:31;15.00;99.90
32660;DHT22;19064;47.912;12.308;2022-07-03T02:08:33;14.90;99.90
32660;DHT22;19064;47.912;12.308;2022-07-03T02:11:08;14.90;99.90
32660;DHT22;19064;47.912;12.308;2022-07-03T02:13:39;14.70;99.90
32660;DHT22;19064;47.912;12.308;2022-07-03T02:16:08;14.60;99.90
32660;DHT22;19064;47.912;12.308;2022-07-03T02:18:41;14.70;99.90
32660;DHT22;19064;47.912;12.308;2022-07-03T02:21:13;14.80;99.90
32660;DHT22;19064;47.912;12.308;2022-07-03T02:23:49;14.90;99.90
32660;DHT22;19064;47.912;12.308;2022-07-03T02:26:22;14.90;99.90
32660;DHT22;19064;47.912;12.308;2022-07-03T02:28:58;14.90;99.90
32660;DHT22;19064;47.912;12.308;2022-07-03T02:31:33;14.90;99.90
32660;DHT22;19064;47.912;12.308;2022-07-03T02:34:02;15.00;99.90
32660;DHT22;19064;47.912;12.308;2022-07-03T02:36:32;14.90;99.90
32660;DHT22;19064;47.912;12.308;2022-07-03T02:39:00;14.90;99.90
32660;DHT22;19064;47.912;12.308;2022-07-03T02:41:39;15.00;99.90
32660;DHT22;19064;47.912;12.308;2022-07-03T02:44:14;15.00;99.90
32660;DHT22;19064;47.912;12.308;2022-07-03T02:46:52;15.10;99.90
32660;DHT22;19064;47.912;12.308;2022-07-03T02:49:32;15.10;99.90
32660;DHT22;19064;47.912;12.308;2022-07-03T02:52:10;15.20;99.90
32660;DHT22;19064;47.912;12.308;2022-07-03T02:54:43;15.20;99.90
32660;DHT22;19064;47.912;12.308;2022-07-03T02:57:10;15.20;99.90
32660;DHT22;19064;47.912;12.308;2022-07-03T02:59:50;15.30;99.90
32660;DHT22;19064;47.912;12.308;2022-07-03T03:02:29;15.30;99.90
32660;DHT22;19064;47.912;12.308;2022-07-03T03:05:03;15.30;99.90
32660;DHT22;19064;47.912;12.308;2022-07-03T03:07:34;15.30;99.90
32660;DHT22;19064;47.912;12.308;2022-07-03T03:10:02;15.30;99.90
32660;DHT22;19064;47.912;12.308;2022-07-03T03:12:31;15.30;99.90
32660;DHT22;19064;47.912;12.308;2022-07-03T03:15:04;15.30;99.90
32660;DHT22;19064;47.912;12.308;2022-07-03T03:17:36;15.30;99.90
32660;DHT22;19064;47.912;12.308;2022-07-03T03:20:07;15.30;99.90
32660;DHT22;19064;47.912;12.308;2022-07-03T03:22:51;15.30;99.90
32660;DHT22;19064;47.912;12.308;2022-07-03T03:25:24;15.40;99.90
32660;DHT22;19064;47.912;12.308;2022-07-03T03:27:52;15.40;99.90
32660;DHT22;19064;47.912;12.308;2022-07-03T03:30:19;15.40;99.90
32660;DHT22;19064;47.912;12.308;2022-07-03T03:32:47;15.40;99.90
32660;DHT22;19064;47.912;12.308;2022-07-03T03:35:14;15.40;99.90
32660;DHT22;19064;47.912;12.308;2022-07-03T03:37:41;15.40;99.90
32660;DHT22;19064;47.912;12.308;2022-07-03T03:40:09;15.50;99.90
32660;DHT22;19064;47.912;12.308;2022-07-03T03:42:37;15.50;99.90
32660;DHT22;19064;47.912;12.308;2022-07-03T03:45:04;15.50;99.90
32660;DHT22;19064;47.912;12.308;2022-07-03T03:47:32;15.50;99.90
32660;DHT22;19064;47.912;12.308;2022-07-03T03:50:01;15.50;99.90
32660;DHT22;19064;47.912;12.308;2022-07-03T03:52:28;15.50;99.90
32660;DHT22;19064;47.912;12.308;2022-07-03T03:54:55;15.50;99.90
32660;DHT22;19064;47.912;12.308;2022-07-03T03:57:24;15.50;99.90
32660;DHT22;19064;47.912;12.308;2022-07-03T03:59:51;15.50;99.90
32660;DHT22;19064;47.912;12.308;2022-07-03T04:02:19;15.50;99.90
32660;DHT22;19064;47.912;12.308;2022-07-03T04:04:46;15.50;99.90
32660;DHT22;19064;47.912;12.308;2022-07-03T04:07:14;15.60;99.90
32660;DHT22;19064;47.912;12.308;2022-07-03T04:09:41;15.60;99.90
32660;DHT22;19064;47.912;12.308;2022-07-03T04:12:10;15.50;99.90
32660;DHT22;19064;47.912;12.308;2022-07-03T04:14:37;15.50;99.90
32660;DHT22;19064;47.912;12.308;2022-07-03T04:17:04;15.50;99.90
32660;DHT22;19064;47.912;12.308;2022-07-03T04:19:31;15.50;99.90
32660;DHT22;19064;47.912;12.308;2022-07-03T04:21:58;15.60;99.90
32660;DHT22;19064;47.912;12.308;2022-07-03T04:24:27;15.70;99.90
32660;DHT22;19064;47.912;12.308;2022-07-03T04:26:53;15.70;99.90
32660;DHT22;19064;47.912;12.308;2022-07-03T04:29:20;15.80;99.90
32660;DHT22;19064;47.912;12.308;2022-07-03T04:31:47;15.90;99.90
32660;DHT22;19064;47.912;12.308;2022-07-03T04:34:14;16.00;99.90
32660;DHT22;19064;47.912;12.308;2022-07-03T04:36:41;16.10;99.90
32660;DHT22;19064;47.912;12.308;2022-07-03T04:39:08;16.30;99.90
32660;DHT22;19064;47.912;12.308;2022-07-03T04:41:36;16.30;99.90
32660;DHT22;19064;47.912;12.308;2022-07-03T04:44:03;16.50;99.90
32660;DHT22;19064;47.912;12.308;2022-07-03T04:46:31;16.80;99.90
32660;DHT22;19064;47.912;12.308;2022-07-03T04:48:58;16.90;99.90
32660;DHT22;19064;47.912;12.308;2022-07-03T04:51:24;16.80;99.90
32660;DHT22;19064;47.912;12.308;2022-07-03T04:53:51;16.70;99.90
32660;DHT22;19064;47.912;12.308;2022-07-03T04:56:19;16.70;99.90
32660;DHT22;19064;47.912;12.308;2022-07-03T04:58:48;16.70;99.90
32660;DHT22;19064;47.912;12.308;2022-07-03T05:01:14;16.60;99.90
32660;DHT22;19064;47.912;12.308;2022-07-03T05:03:41;16.60;99.90
32660;DHT22;19064;47.912;12.308;2022-07-03T05:06:08;16.50;99.90
32660;DHT22;19064;47.912;12.308;2022-07-03T05:08:35;16.50;99.90
32660;DHT22;19064;47.912;12.308;2022-07-03T05:11:02;16.60;99.90
32660;DHT22;19064;47.912;12.308;2022-07-03T05:13:29;16.60;99.90
32660;DHT22;19064;47.912;12.308;2022-07-03T05:15:57;16.60;99.90
32660;DHT22;19064;47.912;12.308;2022-07-03T05:18:24;16.70;99.90
32660;DHT22;19064;47.912;12.308;2022-07-03T05:20:51;16.90;99.90
32660;DHT22;19064;47.912;12.308;2022-07-03T05:23:17;17.00;99.90
32660;DHT22;19064;47.912;12.308;2022-07-03T05:25:44;17.30;99.90
32660;DHT22;19064;47.912;12.308;2022-07-03T05:28:11;17.50;99.90
32660;DHT22;19064;47.912;12.308;2022-07-03T05:30:38;17.50;99.90
32660;DHT22;19064;47.912;12.308;2022-07-03T05:33:07;17.50;99.90
32660;DHT22;19064;47.912;12.308;2022-07-03T05:35:34;17.40;99.90
32660;DHT22;19064;47.912;12.308;2022-07-03T05:38:01;17.40;99.90
32660;DHT22;19064;47.912;12.308;2022-07-03T05:40:28;17.30;99.90
32660;DHT22;19064;47.912;12.308;2022-07-03T05:42:55;17.30;99.90
32660;DHT22;19064;47.912;12.308;2022-07-03T05:45:22;17.20;99.90
32660;DHT22;19064;47.912;12.308;2022-07-03T05:47:49;17.20;99.90
32660;DHT22;19064;47.912;12.308;2022-07-03T05:50:17;17.30;99.90
32660;DHT22;19064;47.912;12.308;2022-07-03T05:52:44;17.40;99.90
32660;DHT22;19064;47.912;12.308;2022-07-03T05:55:10;17.50;99.90
32660;DHT22;19064;47.912;12.308;2022-07-03T05:57:37;17.70;99.90
32660;DHT22;19064;47.912;12.308;2022-07-03T06:00:05;17.80;99.90
32660;DHT22;19064;47.912;12.308;2022-07-03T06:02:32;18.00;99.90
32660;DHT22;19064;47.912;12.308;2022-07-03T06:04:59;17.80;99.90
32660;DHT22;19064;47.912;12.308;2022-07-03T06:07:27;17.80;99.90
32660;DHT22;19064;47.912;12.308;2022-07-03T06:09:54;17.60;99.90
32660;DHT22;19064;47.912;12.308;2022-07-03T06:12:21;17.60;99.90
32660;DHT22;19064;47.912;12.308;2022-07-03T06:14:48;17.60;99.90
32660;DHT22;19064;47.912;12.308;2022-07-03T06:17:15;17.70;99.90
32660;DHT22;19064;47.912;12.308;2022-07-03T06:19:42;17.80;99.90
32660;DHT22;19064;47.912;12.308;2022-07-03T06:22:09;18.00;99.90
32660;DHT22;19064;47.912;12.308;2022-07-03T06:24:37;17.90;99.90
32660;DHT22;19064;47.912;12.308;2022-07-03T06:27:04;18.00;99.90
32660;DHT22;19064;47.912;12.308;2022-07-03T06:29:31;18.00;99.90
32660;DHT22;19064;47.912;12.308;2022-07-03T06:31:58;18.10;99.90
32660;DHT22;19064;47.912;12.308;2022-07-03T06:34:25;18.20;99.90
32660;DHT22;19064;47.912;12.308;2022-07-03T06:36:52;18.50;99.90
32660;DHT22;19064;47.912;12.308;2022-07-03T06:39:19;18.60;99.90
32660;DHT22;19064;47.912;12.308;2022-07-03T06:41:47;18.80;99.90
32660;DHT22;19064;47.912;12.308;2022-07-03T06:44:14;18.90;99.90
32660;DHT22;19064;47.912;12.308;2022-07-03T06:46:41;19.10;99.90
32660;DHT22;19064;47.912;12.308;2022-07-03T06:49:08;19.40;99.90
32660;DHT22;19064;47.912;12.308;2022-07-03T06:51:35;19.60;99.90
32660;DHT22;19064;47.912;12.308;2022-07-03T06:54:02;19.70;99.90
32660;DHT22;19064;47.912;12.308;2022-07-03T06:56:29;19.90;99.90
32660;DHT22;19064;47.912;12.308;2022-07-03T06:58:58;20.10;99.90
32660;DHT22;19064;47.912;12.308;2022-07-03T07:01:26;20.30;99.90
32660;DHT22;19064;47.912;12.308;2022-07-03T07:03:53;20.50;99.90
32660;DHT22;19064;47.912;12.308;2022-07-03T07:06:20;20.80;99.90
32660;DHT22;19064;47.912;12.308;2022-07-03T07:08:50;21.00;99.90
32660;DHT22;19064;47.912;12.308;2022-07-03T07:11:18;21.10;99.90
32660;DHT22;19064;47.912;12.308;2022-07-03T07:13:46;21.20;99.90
32660;DHT22;19064;47.912;12.308;2022-07-03T07:16:17;21.30;99.90
32660;DHT22;19064;47.912;12.308;2022-07-03T07:18:44;21.50;99.90
32660;DHT22;19064;47.912;12.308;2022-07-03T07:21:11;21.60;99.90
32660;DHT22;19064;47.912;12.308;2022-07-03T07:23:38;21.80;99.90
32660;DHT22;19064;47.912;12.308;2022-07-03T07:26:06;21.90;99.90
32660;DHT22;19064;47.912;12.308;2022-07-03T07:28:33;22.00;99.90
32660;DHT22;19064;47.912;12.308;2022-07-03T07:31:01;22.00;99.90
32660;DHT22;19064;47.912;12.308;2022-07-03T07:33:40;22.00;99.90
32660;DHT22;19064;47.912;12.308;2022-07-03T07:36:09;22.20;99.90
32660;DHT22;19064;47.912;12.308;2022-07-03T07:38:37;22.20;99.90
32660;DHT22;19064;47.912;12.308;2022-07-03T07:41:05;22.40;99.90
32660;DHT22;19064;47.912;12.308;2022-07-03T07:43:32;22.50;99.90
32660;DHT22;19064;47.912;12.308;2022-07-03T07:46:02;22.50;99.90
32660;DHT22;19064;47.912;12.308;2022-07-03T07:48:29;22.60;99.90
32660;DHT22;19064;47.912;12.308;2022-07-03T07:51:01;22.60;99.90
32660;DHT22;19064;47.912;12.308;2022-07-03T07:53:28;22.70;99.90
32660;DHT22;19064;47.912;12.308;2022-07-03T07:55:55;22.90;99.90
32660;DHT22;19064;47.912;12.308;2022-07-03T07:58:22;23.00;99.90
32660;DHT22;19064;47.912;12.308;2022-07-03T08:00:49;23.10;99.90
32660;DHT22;19064;47.912;12.308;2022-07-03T08:03:33;23.20;99.90
32660;DHT22;19064;47.912;12.308;2022-07-03T08:06:56;23.30;99.90
32660;DHT22;19064;47.912;12.308;2022-07-03T08:09:23;23.50;99.90
32660;DHT22;19064;47.912;12.308;2022-07-03T08:11:50;23.60;99.90
32660;DHT22;19064;47.912;12.308;2022-07-03T08:14:17;23.70;99.90
32660;DHT22;19064;47.912;12.308;2022-07-03T08:16:44;23.50;99.90
32660;DHT22;19064;47.912;12.308;2022-07-03T08:19:12;23.60;99.90
32660;DHT22;19064;47.912;12.308;2022-07-03T08:21:39;23.60;99.90
32660;DHT22;19064;47.912;12.308;2022-07-03T08:24:08;23.60;99.90
32660;DHT22;19064;47.912;12.308;2022-07-03T08:26:36;23.70;99.90
32660;DHT22;19064;47.912;12.308;2022-07-03T08:29:03;23.80;99.90
32660;DHT22;19064;47.912;12.308;2022-07-03T08:31:31;23.90;99.90
32660;DHT22;19064;47.912;12.308;2022-07-03T08:33:58;23.80;99.90
32660;DHT22;19064;47.912;12.308;2022-07-03T08:36:26;23.70;99.90
32660;DHT22;19064;47.912;12.308;2022-07-03T08:38:54;23.70;99.90
32660;DHT22;19064;47.912;12.308;2022-07-03T08:41:25;23.80;99.90
32660;DHT22;19064;47.912;12.308;2022-07-03T08:43:55;24.00;99.90
32660;DHT22;19064;47.912;12.308;2022-07-03T08:46:30;24.00;99.90
32660;DHT22;19064;47.912;12.308;2022-07-03T08:48:59;24.00;99.90
32660;DHT22;19064;47.912;12.308;2022-07-03T08:51:26;24.10;99.90
32660;DHT22;19064;47.912;12.308;2022-07-03T08:54:00;24.20;99.90
32660;DHT22;19064;47.912;12.308;2022-07-03T08:57:12;24.20;99.90
32660;DHT22;19064;47.912;12.308;2022-07-03T08:59:53;24.30;99.90
32660;DHT22;19064;47.912;12.308;2022-07-03T09:02:21;24.20;99.90
32660;DHT22;19064;47.912;12.308;2022-07-03T09:04:49;24.40;99.90
32660;DHT22;19064;47.912;12.308;2022-07-03T09:07:18;24.50;99.90
32660;DHT22;19064;47.912;12.308;2022-07-03T09:09:57;24.40;99.90
32660;DHT22;19064;47.912;12.308;2022-07-03T09:12:26;24.60;99.90
32660;DHT22;19064;47.912;12.308;2022-07-03T09:14:54;24.40;99.90
32660;DHT22;19064;47.912;12.308;2022-07-03T09:17:22;24.50;99.90
32660;DHT22;19064;47.912;12.308;2022-07-03T09:19:49;24.60;99.90
32660;DHT22;19064;47.912;12.308;2022-07-03T09:22:22;24.70;99.90
32660;DHT22;19064;47.912;12.308;2022-07-03T09:24:53;24.70;99.90
32660;DHT22;19064;47.912;12.308;2022-07-03T09:27:21;24.70;99.90
32660;DHT22;19064;47.912;12.308;2022-07-03T09:29:57;24.70;99.90
32660;DHT22;19064;47.912;12.308;2022-07-03T09:32:24;24.90;99.90
32660;DHT22;19064;47.912;12.308;2022-07-03T09:35:09;24.90;99.90
32660;DHT22;19064;47.912;12.308;2022-07-03T09:37:36;24.80;99.90
32660;DHT22;19064;47.912;12.308;2022-07-03T09:40:04;24.80;99.90
32660;DHT22;19064;47.912;12.308;2022-07-03T09:42:31;25.00;99.90
32660;DHT22;19064;47.912;12.308;2022-07-03T09:44:59;25.00;99.90
32660;DHT22;19064;47.912;12.308;2022-07-03T09:47:26;25.00;99.90
32660;DHT22;19064;47.912;12.308;2022-07-03T09:49:54;25.20;99.90
32660;DHT22;19064;47.912;12.308;2022-07-03T09:52:33;25.30;99.90
32660;DHT22;19064;47.912;12.308;2022-07-03T09:55:09;25.30;99.90
32660;DHT22;19064;47.912;12.308;2022-07-03T09:57:40;25.50;99.90
32660;DHT22;19064;47.912;12.308;2022-07-03T10:00:16;25.60;99.90
32660;DHT22;19064;47.912;12.308;2022-07-03T10:02:55;25.80;99.90
32660;DHT22;19064;47.912;12.308;2022-07-03T10:05:23;25.90;99.90
32660;DHT22;19064;47.912;12.308;2022-07-03T10:07:52;25.90;99.90
32660;DHT22;19064;47.912;12.308;2022-07-03T10:10:20;25.80;99.90
32660;DHT22;19064;47.912;12.308;2022-07-03T10:12:48;26.10;99.90
32660;DHT22;19064;47.912;12.308;2022-07-03T10:15:18;26.20;99.90
32660;DHT22;19064;47.912;12.308;2022-07-03T10:17:48;26.20;99.90
32660;DHT22;19064;47.912;12.308;2022-07-03T10:20:25;26.30;99.90
32660;DHT22;19064;47.912;12.308;2022-07-03T10:22:53;26.50;99.90
32660;DHT22;19064;47.912;12.308;2022-07-03T10:25:20;26.40;99.90
32660;DHT22;19064;47.912;12.308;2022-07-03T10:27:47;26.40;99.90
32660;DHT22;19064;47.912;12.308;2022-07-03T10:30:23;26.60;99.90
32660;DHT22;19064;47.912;12.308;2022-07-03T10:32:53;26.80;99.90
32660;DHT22;19064;47.912;12.308;2022-07-03T10:35:23;26.80;99.90
32660;DHT22;19064;47.912;12.308;2022-07-03T10:38:16;27.10;99.90
32660;DHT22;19064;47.912;12.308;2022-07-03T10:40:54;27.10;99.90
32660;DHT22;19064;47.912;12.308;2022-07-03T10:43:44;27.10;99.90
32660;DHT22;19064;47.912;12.308;2022-07-03T10:46:30;27.30;99.90
32660;DHT22;19064;47.912;12.308;2022-07-03T10:49:03;27.40;99.90
32660;DHT22;19064;47.912;12.308;2022-07-03T10:54:16;27.60;99.90
32660;DHT22;19064;47.912;12.308;2022-07-03T10:57:09;27.80;99.90
32660;DHT22;19064;47.912;12.308;2022-07-03T10:59:59;28.00;99.70
32660;DHT22;19064;47.912;12.308;2022-07-03T11:02:41;28.10;99.00
32660;DHT22;19064;47.912;12.308;2022-07-03T11:05:19;28.30;98.40
32660;DHT22;19064;47.912;12.308;2022-07-03T11:08:08;28.30;98.20
32660;DHT22;19064;47.912;12.308;2022-07-03T11:10:38;28.30;97.10
32660;DHT22;19064;47.912;12.308;2022-07-03T11:13:16;28.20;96.20
32660;DHT22;19064;47.912;12.308;2022-07-03T11:15:48;28.20;96.30
32660;DHT22;19064;47.912;12.308;2022-07-03T11:18:32;28.50;97.00
32660;DHT22;19064;47.912;12.308;2022-07-03T11:21:33;28.70;94.90
32660;DHT22;19064;47.912;12.308;2022-07-03T11:27:21;28.60;94.60
32660;DHT22;19064;47.912;12.308;2022-07-03T11:29:57;28.90;93.20
32660;DHT22;19064;47.912;12.308;2022-07-03T11:32:48;28.80;90.90
32660;DHT22;19064;47.912;12.308;2022-07-03T11:35:50;28.80;91.70
32660;DHT22;19064;47.912;12.308;2022-07-03T11:38:24;28.80;91.00
32660;DHT22;19064;47.912;12.308;2022-07-03T11:40:53;28.80;88.20
32660;DHT22;19064;47.912;12.308;2022-07-03T11:43:22;28.70;89.40
32660;DHT22;19064;47.912;12.308;2022-07-03T11:45:51;28.80;88.00
32660;DHT22;19064;47.912;12.308;2022-07-03T11:48:20;28.70;84.10
32660;DHT22;19064;47.912;12.308;2022-07-03T11:50:50;28.80;90.00
32660;DHT22;19064;47.912;12.308;2022-07-03T11:53:27;28.90;91.60
32660;DHT22;19064;47.912;12.308;2022-07-03T11:55:58;29.00;91.00
32660;DHT22;19064;47.912;12.308;2022-07-03T11:58:39;29.00;92.40
32660;DHT22;19064;47.912;12.308;2022-07-03T12:01:09;28.80;90.80
32660;DHT22;19064;47.912;12.308;2022-07-03T12:03:45;28.70;90.30
32660;DHT22;19064;47.912;12.308;2022-07-03T12:06:19;28.80;87.50
32660;DHT22;19064;47.912;12.308;2022-07-03T12:08:47;28.60;90.60
32660;DHT22;19064;47.912;12.308;2022-07-03T12:11:16;28.70;87.20
32660;DHT22;19064;47.912;12.308;2022-07-03T12:13:44;28.50;90.60
32660;DHT22;19064;47.912;12.308;2022-07-03T12:16:14;28.40;90.40
32660;DHT22;19064;47.912;12.308;2022-07-03T12:21:36;28.10;90.80
32660;DHT22;19064;47.912;12.308;2022-07-03T12:27:13;28.00;90.40
32660;DHT22;19064;47.912;12.308;2022-07-03T12:29:40;28.00;91.20
32660;DHT22;19064;47.912;12.308;2022-07-03T12:32:08;28.00;91.90
32660;DHT22;19064;47.912;12.308;2022-07-03T12:34:36;27.90;91.40
32660;DHT22;19064;47.912;12.308;2022-07-03T12:37:06;28.00;91.10
32660;DHT22;19064;47.912;12.308;2022-07-03T12:39:43;28.00;90.30
32660;DHT22;19064;47.912;12.308;2022-07-03T12:42:15;27.90;88.90
32660;DHT22;19064;47.912;12.308;2022-07-03T12:44:42;27.90;91.00
32660;DHT22;19064;47.912;12.308;2022-07-03T12:47:10;27.90;91.70
32660;DHT22;19064;47.912;12.308;2022-07-03T12:49:36;27.90;90.60
32660;DHT22;19064;47.912;12.308;2022-07-03T12:52:07;27.90;92.00
32660;DHT22;19064;47.912;12.308;2022-07-03T12:54:34;28.00;88.00
32660;DHT22;19064;47.912;12.308;2022-07-03T12:57:03;28.10;89.90
32660;DHT22;19064;47.912;12.308;2022-07-03T13:00:03;28.20;90.80
32660;DHT22;19064;47.912;12.308;2022-07-03T13:02:32;28.30;90.90
32660;DHT22;19064;47.912;12.308;2022-07-03T13:05:15;28.20;89.30
32660;DHT22;19064;47.912;12.308;2022-07-03T13:07:47;28.30;91.20
32660;DHT22;19064;47.912;12.308;2022-07-03T13:10:18;28.30;90.20
32660;DHT22;19064;47.912;12.308;2022-07-03T13:12:49;28.40;88.30
32660;DHT22;19064;47.912;12.308;2022-07-03T13:15:18;28.40;88.00
32660;DHT22;19064;47.912;12.308;2022-07-03T13:18:07;28.50;86.70
32660;DHT22;19064;47.912;12.308;2022-07-03T13:20:39;28.30;86.70
32660;DHT22;19064;47.912;12.308;2022-07-03T13:23:09;28.30;88.20
32660;DHT22;19064;47.912;12.308;2022-07-03T13:25:38;28.20;89.30
32660;DHT22;19064;47.912;12.308;2022-07-03T13:28:16;28.10;87.70
32660;DHT22;19064;47.912;12.308;2022-07-03T13:30:43;28.20;89.40
32660;DHT22;19064;47.912;12.308;2022-07-03T13:33:10;28.20;90.10
32660;DHT22;19064;47.912;12.308;2022-07-03T13:35:40;28.20;88.80
32660;DHT22;19064;47.912;12.308;2022-07-03T13:38:10;28.10;90.30
32660;DHT22;19064;47.912;12.308;2022-07-03T13:40:38;28.20;91.40
32660;DHT22;19064;47.912;12.308;2022-07-03T13:43:06;28.40;91.40
32660;DHT22;19064;47.912;12.308;2022-07-03T13:45:34;28.50;89.20
32660;DHT22;19064;47.912;12.308;2022-07-03T13:48:02;28.50;89.80
32660;DHT22;19064;47.912;12.308;2022-07-03T13:50:31;28.40;88.70
32660;DHT22;19064;47.912;12.308;2022-07-03T13:52:59;28.50;89.20
32660;DHT22;19064;47.912;12.308;2022-07-03T13:55:31;28.40;86.40
32660;DHT22;19064;47.912;12.308;2022-07-03T13:57:59;28.40;87.30
32660;DHT22;19064;47.912;12.308;2022-07-03T14:00:31;28.40;86.30
32660;DHT22;19064;47.912;12.308;2022-07-03T14:03:01;28.40;84.60
32660;DHT22;19064;47.912;12.308;2022-07-03T14:05:29;28.30;84.70
32660;DHT22;19064;47.912;12.308;2022-07-03T14:07:57;28.60;86.80
32660;DHT22;19064;47.912;12.308;2022-07-03T14:10:25;28.50;83.60
32660;DHT22;19064;47.912;12.308;2022-07-03T14:12:55;28.60;84.30
32660;DHT22;19064;47.912;12.308;2022-07-03T14:15:23;28.70;87.40
32660;DHT22;19064;47.912;12.308;2022-07-03T14:17:51;28.80;84.30
32660;DHT22;19064;47.912;12.308;2022-07-03T14:20:21;28.80;84.80
32660;DHT22;19064;47.912;12.308;2022-07-03T14:22:52;28.70;82.70
32660;DHT22;19064;47.912;12.308;2022-07-03T14:25:20;28.80;85.50
32660;DHT22;19064;47.912;12.308;2022-07-03T14:27:48;28.80;83.50
32660;DHT22;19064;47.912;12.308;2022-07-03T14:30:35;28.90;82.80
32660;DHT22;19064;47.912;12.308;2022-07-03T14:33:20;29.10;82.20
32660;DHT22;19064;47.912;12.308;2022-07-03T14:35:48;29.00;79.90
32660;DHT22;19064;47.912;12.308;2022-07-03T14:38:19;29.10;86.50
32660;DHT22;19064;47.912;12.308;2022-07-03T14:40:47;29.20;80.40
32660;DHT22;19064;47.912;12.308;2022-07-03T14:43:17;29.20;80.10
32660;DHT22;19064;47.912;12.308;2022-07-03T14:45:49;29.20;82.60
32660;DHT22;19064;47.912;12.308;2022-07-03T14:48:17;29.30;80.40
32660;DHT22;19064;47.912;12.308;2022-07-03T14:50:45;29.20;82.50
32660;DHT22;19064;47.912;12.308;2022-07-03T14:53:13;29.10;82.50
32660;DHT22;19064;47.912;12.308;2022-07-03T14:55:41;29.20;85.80
32660;DHT22;19064;47.912;12.308;2022-07-03T14:58:16;29.40;85.30
32660;DHT22;19064;47.912;12.308;2022-07-03T15:00:48;29.40;87.90
32660;DHT22;19064;47.912;12.308;2022-07-03T15:03:18;29.20;80.10
32660;DHT22;19064;47.912;12.308;2022-07-03T15:05:47;29.10;83.00
32660;DHT22;19064;47.912;12.308;2022-07-03T15:08:48;29.20;79.70
32660;DHT22;19064;47.912;12.308;2022-07-03T15:11:22;29.10;84.70
32660;DHT22;19064;47.912;12.308;2022-07-03T15:14:08;29.10;84.60
32660;DHT22;19064;47.912;12.308;2022-07-03T15:16:39;29.10;82.60
32660;DHT22;19064;47.912;12.308;2022-07-03T15:19:12;29.40;84.30
32660;DHT22;19064;47.912;12.308;2022-07-03T15:21:41;29.60;79.50
32660;DHT22;19064;47.912;12.308;2022-07-03T15:24:11;29.80;78.20
32660;DHT22;19064;47.912;12.308;2022-07-03T15:26:44;29.80;80.20
32660;DHT22;19064;47.912;12.308;2022-07-03T15:29:16;29.50;77.40
32660;DHT22;19064;47.912;12.308;2022-07-03T15:31:47;29.50;80.10
32660;DHT22;19064;47.912;12.308;2022-07-03T15:34:18;29.40;81.00
32660;DHT22;19064;47.912;12.308;2022-07-03T15:36:56;29.50;84.40
32660;DHT22;19064;47.912;12.308;2022-07-03T15:39:33;29.50;82.50
32660;DHT22;19064;47.912;12.308;2022-07-03T15:42:10;29.40;82.70
32660;DHT22;19064;47.912;12.308;2022-07-03T15:44:49;29.50;86.20
32660;DHT22;19064;47.912;12.308;2022-07-03T15:47:40;29.70;82.80
32660;DHT22;19064;47.912;12.308;2022-07-03T15:50:18;29.70;85.70
32660;DHT22;19064;47.912;12.308;2022-07-03T15:52:48;29.80;85.10